createdAt,value
2022-10-05T00:01:48.827Z,9.35
2022-10-05T00:04:19.036Z,10.02
2022-10-05T00:06:50.982Z,7.85
2022-10-05T00:09:23.209Z,8.93
2022-10-05T00:11:51.032Z,8.63
2022-10-05T00:14:21.815Z,9.77
2022-10-05T00:16:48.776Z,7.47
2022-10-05T00:19:21.635Z,9.23
2022-10-05T00:21:48.291Z,9.77
2022-10-05T00:24:19.164Z,10.55
2022-10-05T00:26:46.093Z,9.02
2022-10-05T00:29:23.120Z,14.27
2022-10-05T00:31:50.287Z,11.57
2022-10-05T00:34:17.721Z,10.35
2022-10-05T00:36:45.456Z,10.68
2022-10-05T00:39:12.074Z,9.13
2022-10-05T00:42:16.090Z,8.52
2022-10-05T00:44:42.426Z,7.00
2022-10-05T00:47:25.912Z,10.10
2022-10-05T00:50:01.354Z,11.65
2022-10-05T00:53:07.004Z,8.63
2022-10-05T00:55:39.296Z,12.40
2022-10-05T00:58:23.704Z,9.15
2022-10-05T01:01:11.124Z,9.80
2022-10-05T01:03:56.913Z,8.32
2022-10-05T01:06:37.512Z,8.48
2022-10-05T01:09:31.436Z,10.05
2022-10-05T01:12:09.347Z,11.00
2022-10-05T01:14:44.605Z,8.63
2022-10-05T01:17:17.020Z,8.95
2022-10-05T01:20:20.891Z,11.80
2022-10-05T01:23:05.874Z,9.88
2022-10-05T01:25:44.649Z,8.05
2022-10-05T01:28:14.052Z,9.80
2022-10-05T01:30:52.906Z,9.48
2022-10-05T01:33:23.748Z,12.07
2022-10-05T01:36:12.956Z,9.57
2022-10-05T01:39:17.307Z,8.82
2022-10-05T01:42:05.310Z,10.15
2022-10-05T01:44:42.389Z,12.45
2022-10-05T01:47:26.269Z,11.05
2022-10-05T01:50:01.433Z,10.18
2022-10-05T01:52:30.541Z,9.40
2022-10-05T01:57:44.303Z,9.57
2022-10-05T02:00:14.376Z,10.88
2022-10-05T02:02:48.814Z,10.48
2022-10-05T02:05:24.303Z,9.60
2022-10-05T02:08:16.757Z,10.95
2022-10-05T02:11:14.790Z,10.85
2022-10-05T02:13:55.795Z,10.35
2022-10-05T02:16:37.548Z,9.88
2022-10-05T02:19:18.901Z,8.25
2022-10-05T02:21:51.166Z,12.55
2022-10-05T02:24:27.202Z,9.55
2022-10-05T02:26:56.079Z,10.32
2022-10-05T02:29:27.580Z,10.25
2022-10-05T02:32:00.119Z,10.32
2022-10-05T02:34:29.660Z,9.23
2022-10-05T02:37:13.059Z,9.77
2022-10-05T02:40:05.523Z,10.55
2022-10-05T02:42:52.181Z,9.88
2022-10-05T02:45:24.701Z,11.57
2022-10-05T02:47:51.016Z,11.50
2022-10-05T02:50:17.326Z,9.23
2022-10-05T02:53:10.733Z,10.23
2022-10-05T02:55:42.955Z,11.57
2022-10-05T02:58:16.182Z,10.50
2022-10-05T03:00:50.759Z,11.68
2022-10-05T03:03:32.338Z,9.95
2022-10-05T03:06:02.618Z,10.25
2022-10-05T03:08:51.364Z,9.02
2022-10-05T03:11:43.407Z,10.88
2022-10-05T03:14:46.479Z,8.50
2022-10-05T03:17:27.355Z,12.38
2022-10-05T03:20:22.548Z,9.40
2022-10-05T03:23:00.478Z,9.88
2022-10-05T03:25:51.591Z,10.30
2022-10-05T03:28:40.360Z,12.05
2022-10-05T03:31:22.556Z,9.57
2022-10-05T03:33:57.135Z,11.48
2022-10-05T03:36:37.771Z,11.38
2022-10-05T03:39:27.004Z,10.32
2022-10-05T03:42:19.510Z,9.32
2022-10-05T03:44:51.997Z,10.25
2022-10-05T03:47:30.347Z,12.57
2022-10-05T03:50:11.991Z,13.05
2022-10-05T03:52:44.225Z,9.00
2022-10-05T03:55:30.326Z,10.45
2022-10-05T03:58:02.368Z,10.23
2022-10-05T04:00:32.003Z,9.98
2022-10-05T04:03:09.900Z,11.98
2022-10-05T04:06:15.271Z,9.27
2022-10-05T04:08:54.495Z,8.73
2022-10-05T04:11:46.668Z,12.10
2022-10-05T04:14:20.704Z,8.00
2022-10-05T04:16:52.468Z,10.05
2022-10-05T04:19:56.376Z,9.75
2022-10-05T04:22:27.991Z,10.43
2022-10-05T04:25:07.839Z,10.30
2022-10-05T04:27:40.196Z,9.07
2022-10-05T04:30:12.455Z,8.25
2022-10-05T04:32:50.287Z,12.50
2022-10-05T04:35:44.084Z,12.68
2022-10-05T04:38:29.820Z,13.18
2022-10-05T04:40:59.318Z,9.38
2022-10-05T04:43:49.492Z,8.75
2022-10-05T04:46:53.338Z,11.93
2022-10-05T04:49:34.669Z,11.70
2022-10-05T04:52:06.994Z,10.55
2022-10-05T04:54:33.307Z,10.77
2022-10-05T04:57:10.625Z,9.25
2022-10-05T04:59:55.364Z,9.82
2022-10-05T05:02:43.160Z,10.88
2022-10-05T05:05:53.169Z,9.18
2022-10-05T05:09:00.695Z,9.48
2022-10-05T05:11:42.191Z,8.73
2022-10-05T05:14:46.004Z,9.50
2022-10-05T05:17:31.413Z,9.02
2022-10-05T05:20:26.795Z,11.30
2022-10-05T05:22:56.163Z,9.77
2022-10-05T05:25:45.210Z,8.93
2022-10-05T05:28:37.002Z,8.13
2022-10-05T05:31:38.919Z,8.10
2022-10-05T05:34:18.052Z,10.98
2022-10-05T05:37:02.174Z,8.75
2022-10-05T05:39:39.440Z,10.93
2022-10-05T05:42:49.416Z,8.70
2022-10-05T05:45:58.699Z,9.35
2022-10-05T05:48:40.385Z,9.57
2022-10-05T05:51:51.622Z,8.98
2022-10-05T05:54:31.301Z,10.52
2022-10-05T05:57:27.120Z,12.68
2022-10-05T06:00:10.768Z,8.40
2022-10-05T06:02:50.138Z,8.85
2022-10-05T06:05:30.017Z,9.25
2022-10-05T06:08:00.373Z,9.00
2022-10-05T06:10:38.327Z,8.77
2022-10-05T06:13:12.960Z,7.70
2022-10-05T06:15:44.755Z,7.55
2022-10-05T06:18:15.530Z,10.07
2022-10-05T06:20:51.396Z,9.05
2022-10-05T06:23:25.240Z,10.80
2022-10-05T06:26:07.078Z,8.73
2022-10-05T06:28:37.021Z,7.70
2022-10-05T06:31:34.148Z,9.15
2022-10-05T06:34:27.346Z,9.95
2022-10-05T06:37:00.608Z,8.32
2022-10-05T06:40:02.951Z,9.18
2022-10-05T06:42:41.249Z,9.00
2022-10-05T06:45:53.096Z,9.75
2022-10-05T06:48:22.511Z,9.27
2022-10-05T06:51:00.838Z,8.40
2022-10-05T06:54:01.370Z,9.88
2022-10-05T06:56:55.858Z,8.88
2022-10-05T06:59:32.895Z,9.13
2022-10-05T07:02:34.796Z,12.52
2022-10-05T07:05:22.916Z,8.25
2022-10-05T07:08:00.650Z,8.55
2022-10-05T07:10:40.551Z,8.63
2022-10-05T07:13:44.652Z,10.43
2022-10-05T07:16:36.620Z,7.82
2022-10-05T07:19:18.725Z,7.13
2022-10-05T07:21:54.181Z,9.82
2022-10-05T07:24:22.510Z,10.68
2022-10-05T07:27:07.727Z,9.48
2022-10-05T07:29:39.862Z,7.47
2022-10-05T07:32:21.640Z,9.95
2022-10-05T07:35:00.758Z,9.75
2022-10-05T07:37:55.601Z,9.05
2022-10-05T07:40:58.997Z,7.72
2022-10-05T07:44:02.042Z,7.38
2022-10-05T07:46:50.466Z,7.07
2022-10-05T07:49:32.383Z,10.45
2022-10-05T07:52:21.318Z,8.63
2022-10-05T07:54:57.020Z,11.02
2022-10-05T07:57:29.415Z,7.38
2022-10-05T08:00:01.944Z,10.07
2022-10-05T08:02:46.420Z,7.63
2022-10-05T08:05:23.114Z,7.28
2022-10-05T08:07:55.521Z,6.97
2022-10-05T08:10:38.221Z,11.23
2022-10-05T08:13:10.768Z,9.02
2022-10-05T08:15:47.493Z,7.30
2022-10-05T08:18:14.247Z,8.98
2022-10-05T08:20:48.421Z,7.90
2022-10-05T08:23:21.294Z,8.35
2022-10-05T08:25:53.717Z,7.30
2022-10-05T08:28:27.904Z,7.45
2022-10-05T08:31:00.132Z,6.88
2022-10-05T08:33:31.546Z,8.80
2022-10-05T08:36:10.658Z,8.60
2022-10-05T08:38:38.128Z,12.45
2022-10-05T08:41:57.007Z,7.15
2022-10-05T08:44:33.274Z,9.25
2022-10-05T08:47:12.253Z,8.07
2022-10-05T08:49:38.717Z,5.80
2022-10-05T08:52:39.105Z,6.85
2022-10-05T08:55:34.239Z,6.65
2022-10-05T08:58:12.537Z,5.78
2022-10-05T09:01:18.478Z,7.25
2022-10-05T09:04:04.521Z,5.65
2022-10-05T09:06:58.846Z,5.47
2022-10-05T09:10:03.071Z,8.18
2022-10-05T09:13:00.483Z,8.63
2022-10-05T09:15:57.826Z,6.78
2022-10-05T09:18:24.229Z,7.22
2022-10-05T09:21:00.618Z,5.63
2022-10-05T09:23:40.287Z,5.50
2022-10-05T09:26:40.350Z,5.10
2022-10-05T09:29:40.654Z,7.07
2022-10-05T09:32:32.080Z,8.25
2022-10-05T09:35:08.841Z,5.68
2022-10-05T09:37:41.408Z,6.85
2022-10-05T09:40:47.546Z,8.90
2022-10-05T09:43:49.947Z,5.53
2022-10-05T09:46:34.868Z,5.95
2022-10-05T09:49:29.495Z,4.97
2022-10-05T09:52:19.061Z,6.30
2022-10-05T09:54:56.858Z,6.43
2022-10-05T09:57:52.398Z,5.07
2022-10-05T10:00:38.362Z,5.85
2022-10-05T10:03:52.562Z,5.68
2022-10-05T10:06:51.492Z,6.13
2022-10-05T10:09:42.849Z,6.55
2022-10-05T10:12:18.699Z,6.35
2022-10-05T10:15:23.859Z,8.02
2022-10-05T10:18:08.464Z,7.38
2022-10-05T10:20:56.474Z,5.22
2022-10-05T10:23:37.864Z,7.45
2022-10-05T10:26:19.275Z,4.90
2022-10-05T10:28:52.153Z,4.90
2022-10-05T10:31:37.478Z,3.47
2022-10-05T10:34:37.777Z,7.30
2022-10-05T10:37:32.418Z,4.38
2022-10-05T10:40:20.257Z,4.65
2022-10-05T10:43:10.082Z,4.40
2022-10-05T10:45:51.349Z,3.05
2022-10-05T10:48:30.047Z,4.88
2022-10-05T10:51:15.137Z,3.42
2022-10-05T10:53:47.480Z,3.58
2022-10-05T10:56:35.419Z,3.78
2022-10-05T10:59:19.187Z,3.58
2022-10-05T11:02:03.962Z,3.17
2022-10-05T11:05:03.116Z,4.88
2022-10-05T11:07:58.055Z,2.72
2022-10-05T11:10:46.254Z,6.18
2022-10-05T11:13:30.246Z,3.00
2022-10-05T11:16:15.843Z,6.43
2022-10-05T11:19:20.332Z,4.70
2022-10-05T11:22:14.642Z,3.03
2022-10-05T11:25:14.856Z,5.57
2022-10-05T11:27:53.525Z,3.60
2022-10-05T11:30:51.407Z,3.22
2022-10-05T11:33:36.336Z,6.00
2022-10-05T11:36:30.519Z,2.97
2022-10-05T11:39:33.068Z,3.13
2022-10-05T11:42:30.316Z,3.15
2022-10-05T11:45:52.571Z,6.80
2022-10-05T11:48:34.959Z,7.50
2022-10-05T11:51:34.144Z,3.75
2022-10-05T11:54:21.489Z,3.53
2022-10-05T11:56:56.161Z,4.68
2022-10-05T11:59:44.270Z,3.78
2022-10-05T12:02:43.635Z,5.10
2022-10-05T12:05:38.073Z,2.63
2022-10-05T12:08:19.470Z,4.80
2022-10-05T12:11:00.467Z,4.20
2022-10-05T12:13:43.836Z,5.93
2022-10-05T12:17:07.453Z,4.72
2022-10-05T12:22:18.212Z,4.97
2022-10-05T12:24:44.675Z,2.95
2022-10-05T12:27:14.047Z,2.92
2022-10-05T12:30:06.224Z,9.15
2022-10-05T12:32:38.580Z,3.67
2022-10-05T12:35:36.629Z,3.72
2022-10-05T12:38:28.591Z,4.05
2022-10-05T12:40:57.633Z,5.15
2022-10-05T12:43:27.909Z,3.30
2022-10-05T12:46:08.856Z,6.15
2022-10-05T12:49:22.990Z,3.55
2022-10-05T12:52:02.008Z,6.00
2022-10-05T12:54:40.437Z,4.90
2022-10-05T12:57:28.548Z,5.00
2022-10-05T13:00:04.471Z,4.72
2022-10-05T13:02:42.664Z,2.25
2022-10-05T13:05:09.165Z,4.93
2022-10-05T13:08:13.812Z,5.53
2022-10-05T13:10:54.012Z,3.45
2022-10-05T13:13:23.602Z,3.85
2022-10-05T13:16:29.351Z,4.65
2022-10-05T13:19:01.951Z,7.25
2022-10-05T13:22:09.013Z,4.13
2022-10-05T13:24:45.417Z,7.53
2022-10-05T13:27:13.079Z,3.92
2022-10-05T13:29:51.042Z,9.52
2022-10-05T13:32:27.162Z,4.93
2022-10-05T13:35:18.489Z,3.53
2022-10-05T13:38:10.256Z,5.72
2022-10-05T13:40:45.934Z,3.42
2022-10-05T13:43:15.244Z,3.78
2022-10-05T13:45:41.715Z,5.78
2022-10-05T13:48:39.409Z,3.85
2022-10-05T13:51:13.574Z,6.45
2022-10-05T13:54:05.185Z,2.72
2022-10-05T13:56:39.465Z,3.33
2022-10-05T13:59:24.806Z,5.47
2022-10-05T14:02:08.807Z,5.10
2022-10-05T14:05:01.306Z,2.88
2022-10-05T14:07:34.907Z,4.15
2022-10-05T14:10:04.521Z,2.95
2022-10-05T14:12:40.199Z,3.13
2022-10-05T14:15:39.822Z,5.78
2022-10-05T14:18:26.458Z,3.78
2022-10-05T14:21:08.277Z,4.63
2022-10-05T14:23:35.113Z,2.65
2022-10-05T14:26:04.576Z,3.85
2022-10-05T14:28:34.118Z,7.28
2022-10-05T14:31:13.598Z,5.03
2022-10-05T14:33:41.035Z,5.80
2022-10-05T14:36:22.406Z,4.10
2022-10-05T14:38:57.942Z,3.90
2022-10-05T14:41:27.247Z,11.73
2022-10-05T14:44:28.271Z,6.68
2022-10-05T14:47:11.839Z,2.95
2022-10-05T14:49:49.911Z,4.22
2022-10-05T14:52:32.449Z,9.13
2022-10-05T14:55:05.839Z,4.25
2022-10-05T14:57:48.123Z,2.00
2022-10-05T15:00:18.813Z,7.95
2022-10-05T15:03:15.738Z,5.55
2022-10-05T15:05:50.393Z,5.20
2022-10-05T15:08:33.687Z,5.88
2022-10-05T15:11:08.357Z,4.53
2022-10-05T15:13:41.659Z,3.88
2022-10-05T15:16:21.384Z,5.30
2022-10-05T15:18:56.765Z,3.30
2022-10-05T15:21:48.105Z,3.70
2022-10-05T15:24:26.335Z,4.68
2022-10-05T15:26:56.394Z,3.65
2022-10-05T15:29:49.858Z,3.95
2022-10-05T15:32:30.524Z,24.38
2022-10-05T15:35:24.921Z,7.72
2022-10-05T15:38:13.148Z,4.38
2022-10-05T15:40:48.252Z,10.40
2022-10-05T15:43:20.952Z,4.97
2022-10-05T15:46:01.661Z,4.70
2022-10-05T15:51:24.853Z,12.40
2022-10-05T15:54:25.305Z,4.07
2022-10-05T15:56:59.317Z,2.92
2022-10-05T15:59:50.601Z,8.13
2022-10-05T16:02:28.917Z,5.63
2022-10-05T16:05:14.921Z,6.95
2022-10-05T16:08:08.074Z,4.38
2022-10-05T16:10:38.546Z,11.18
2022-10-05T16:13:04.957Z,11.82
2022-10-05T16:15:38.709Z,5.05
2022-10-05T16:18:05.095Z,4.80
2022-10-05T16:20:37.292Z,4.38
2022-10-05T16:23:38.948Z,3.22
2022-10-05T16:26:25.475Z,3.88
2022-10-05T16:29:03.034Z,4.30
2022-10-05T16:31:38.858Z,5.18
2022-10-05T16:34:51.596Z,4.25
2022-10-05T16:37:36.572Z,4.45
2022-10-05T16:40:35.523Z,8.30
2022-10-05T16:43:07.725Z,5.40
2022-10-05T16:45:51.647Z,4.25
2022-10-05T16:48:27.285Z,7.10
2022-10-05T16:51:28.140Z,9.40
2022-10-05T16:54:17.993Z,4.22
2022-10-05T16:57:00.574Z,6.25
2022-10-05T16:59:59.203Z,7.57
2022-10-05T17:02:45.950Z,8.93
2022-10-05T17:05:51.221Z,4.22
2022-10-05T17:09:12.353Z,8.77
2022-10-05T17:11:55.395Z,5.65
2022-10-05T17:14:43.289Z,6.43
2022-10-05T17:17:21.561Z,14.13
2022-10-05T17:19:53.119Z,6.28
2022-10-05T17:22:31.960Z,5.68
2022-10-05T17:25:11.731Z,6.32
2022-10-05T17:28:16.725Z,6.22
2022-10-05T17:31:15.198Z,6.43
2022-10-05T17:33:59.946Z,5.40
2022-10-05T17:36:38.808Z,6.97
2022-10-05T17:39:46.976Z,6.35
2022-10-05T17:42:34.473Z,5.40
2022-10-05T17:45:21.053Z,8.70
2022-10-05T17:48:10.021Z,3.50
2022-10-05T17:51:04.352Z,3.55
2022-10-05T17:54:06.332Z,7.47
2022-10-05T17:56:58.537Z,8.27
2022-10-05T17:59:46.044Z,3.88
2022-10-05T18:02:23.582Z,6.43
2022-10-05T18:05:30.529Z,4.85
2022-10-05T18:08:12.833Z,3.47
2022-10-05T18:11:36.593Z,4.97
2022-10-05T18:14:14.612Z,4.72
2022-10-05T18:17:02.651Z,7.55
2022-10-05T18:19:33.280Z,3.22
2022-10-05T18:22:10.147Z,4.25
2022-10-05T18:24:53.003Z,3.95
2022-10-05T18:27:34.013Z,4.30
2022-10-05T18:30:26.554Z,4.40
2022-10-05T18:33:14.661Z,4.13
2022-10-05T18:36:03.386Z,3.20
2022-10-05T18:38:44.490Z,2.80
2022-10-05T18:41:38.231Z,8.07
2022-10-05T18:44:34.222Z,4.40
2022-10-05T18:47:22.359Z,4.72
2022-10-05T18:50:13.688Z,7.13
2022-10-05T18:53:04.605Z,3.88
2022-10-05T18:55:51.610Z,4.63
2022-10-05T18:58:33.560Z,5.10
2022-10-05T19:01:03.265Z,3.53
2022-10-05T19:03:41.670Z,5.53
2022-10-05T19:06:26.107Z,7.40
2022-10-05T19:09:17.756Z,6.50
2022-10-05T19:11:59.130Z,4.65
2022-10-05T19:14:45.656Z,4.07
2022-10-05T19:17:25.907Z,4.03
2022-10-05T19:20:09.150Z,5.00
2022-10-05T19:22:54.812Z,4.68
2022-10-05T19:25:47.519Z,4.05
2022-10-05T19:28:19.336Z,2.95
2022-10-05T19:31:07.129Z,8.43
2022-10-05T19:34:04.530Z,6.35
2022-10-05T19:36:44.009Z,3.15
2022-10-05T19:39:34.568Z,5.38
2022-10-05T19:42:20.690Z,3.28
2022-10-05T19:45:09.391Z,3.47
2022-10-05T19:47:58.619Z,3.15
2022-10-05T19:50:32.850Z,5.10
2022-10-05T19:53:12.659Z,4.30
2022-10-05T19:55:45.798Z,5.50
2022-10-05T19:58:27.432Z,4.40
2022-10-05T20:00:56.587Z,3.42
2022-10-05T20:03:29.467Z,5.57
2022-10-05T20:05:58.187Z,4.90
2022-10-05T20:08:27.065Z,5.88
2022-10-05T20:11:17.754Z,6.28
2022-10-05T20:13:47.399Z,4.22
2022-10-05T20:16:35.425Z,4.63
2022-10-05T20:19:54.681Z,5.28
2022-10-05T20:22:35.681Z,6.00
2022-10-05T20:25:28.689Z,5.60
2022-10-05T20:27:56.209Z,4.70
2022-10-05T20:30:25.509Z,4.00
2022-10-05T20:32:57.557Z,4.60
2022-10-05T20:35:27.705Z,5.07
2022-10-05T20:38:00.265Z,7.00
2022-10-05T20:40:29.232Z,4.28
2022-10-05T20:45:22.824Z,5.03
2022-10-05T20:47:50.680Z,4.75
2022-10-05T20:50:17.922Z,4.00
2022-10-05T20:52:44.614Z,5.40
2022-10-05T20:55:11.706Z,5.75
2022-10-05T20:57:41.825Z,6.95
2022-10-05T21:00:10.308Z,6.18
2022-10-05T21:02:38.022Z,4.80
2022-10-05T21:05:04.974Z,3.03
2022-10-05T21:07:34.099Z,4.10
2022-10-05T21:10:01.295Z,5.03
2022-10-05T21:12:27.761Z,8.63
2022-10-05T21:14:54.202Z,3.92
2022-10-05T21:17:20.617Z,4.68
2022-10-05T21:19:47.465Z,4.70
2022-10-05T21:22:14.079Z,5.15
2022-10-05T21:24:41.256Z,6.30
2022-10-05T21:27:08.573Z,10.27
2022-10-05T21:29:36.556Z,7.47
2022-10-05T21:32:08.494Z,10.98
2022-10-05T21:34:35.170Z,6.93
2022-10-05T21:37:01.640Z,8.48
2022-10-05T21:39:28.191Z,4.22
2022-10-05T21:41:54.740Z,7.28
2022-10-05T21:44:21.283Z,5.35
2022-10-05T21:46:48.828Z,6.20
2022-10-05T21:49:18.881Z,6.70
2022-10-05T21:51:47.167Z,4.55
2022-10-05T21:54:21.007Z,2.42
2022-10-05T21:56:50.988Z,4.22
2022-10-05T21:59:20.442Z,4.70
2022-10-05T22:01:46.888Z,5.70
2022-10-05T22:04:14.928Z,4.30
2022-10-05T22:06:41.332Z,5.45
2022-10-05T22:09:07.862Z,2.67
2022-10-05T22:11:34.334Z,5.05
2022-10-05T22:14:03.947Z,3.97
2022-10-05T22:16:33.125Z,4.38
2022-10-05T22:19:05.096Z,4.18
2022-10-05T22:21:34.362Z,3.58
2022-10-05T22:24:02.328Z,3.10
2022-10-05T22:26:28.878Z,4.40
2022-10-05T22:28:56.741Z,3.95
2022-10-05T22:31:23.673Z,5.43
2022-10-05T22:33:50.202Z,3.50
2022-10-05T22:36:16.929Z,3.65
2022-10-05T22:38:44.717Z,2.88
2022-10-05T22:41:12.394Z,1.92
2022-10-05T22:43:39.157Z,3.88
2022-10-05T22:46:13.327Z,2.58
2022-10-05T22:48:40.346Z,3.22
2022-10-05T22:51:07.584Z,3.30
2022-10-05T22:53:35.006Z,4.60
2022-10-05T22:56:10.687Z,6.35
2022-10-05T22:58:37.668Z,9.73
2022-10-05T23:01:06.659Z,4.25
2022-10-05T23:03:33.748Z,7.13
2022-10-05T23:06:03.755Z,7.63
2022-10-05T23:08:34.882Z,7.05
2022-10-05T23:11:12.453Z,6.43
2022-10-05T23:13:38.899Z,3.85
2022-10-05T23:16:10.851Z,7.90
2022-10-05T23:18:37.971Z,7.85
2022-10-05T23:21:08.523Z,8.40
2022-10-05T23:23:39.713Z,6.13
2022-10-05T23:26:08.524Z,4.93
2022-10-05T23:28:35.073Z,4.78
2022-10-05T23:31:03.655Z,1.83
2022-10-05T23:33:30.895Z,7.05
2022-10-05T23:36:02.027Z,3.17
2022-10-05T23:38:28.915Z,3.03
2022-10-05T23:40:56.197Z,2.30
2022-10-05T23:43:22.659Z,6.60
2022-10-05T23:45:49.149Z,2.97
2022-10-05T23:48:15.618Z,3.08
2022-10-05T23:50:45.291Z,1.65
2022-10-05T23:53:12.067Z,2.70
2022-10-05T23:55:38.567Z,2.75
2022-10-05T23:58:05.027Z,5.18
